< Typhoon 198914 1989 Season Typhoon 198916 >
Typhoon 198915 (OWEN)
General InformationTrack Information on Google MapsDetailed Wind InformationList of All Images || Disaster Info.ResourceGoogle EarthGE AnimationAtom FeedGeoJSON
Detalied Best Track (Time Zone = UTC)
Year Month Day Hour Lat. Long. Pressure (hPa) Wind (kt) Class Image Chart
1989 8 9 06 11.0 143.0 1004 0 2 Image Chart
1989 8 9 12 11.0 141.0 1004 0 2 Image Chart
1989 8 9 18 12.0 140.0 1002 0 2 Image Chart
1989 8 10 00 13.2 140.6 1002 0 2 Image Chart
1989 8 10 06 14.2 141.3 1002 0 2 Image Chart
1989 8 10 12 15.1 141.8 1004 0 2 Image Chart
1989 8 10 18 16.0 142.3 1004 0 2 Image Chart
1989 8 11 00 16.9 142.8 1006 0 2 Image Chart
1989 8 11 06 17.7 143.5 1004 0 2 Image Chart
1989 8 11 12 18.5 144.4 1004 0 2 Image Chart
1989 8 11 18 19.1 145.4 1004 0 2 Image Chart
1989 8 12 00 19.5 146.5 1002 0 2 Image Chart
1989 8 12 06 19.5 147.4 1002 0 2 Image Chart
1989 8 12 12 19.4 148.0 1000 0 2 Image Chart
1989 8 12 18 19.3 148.5 998 35 3 Image Chart
1989 8 13 00 19.0 149.1 992 45 3 Image Chart
1989 8 13 06 18.6 150.0 985 55 4 Image Chart
1989 8 13 12 18.9 151.0 980 60 4 Image Chart
1989 8 13 18 19.6 151.4 975 65 5 Image Chart
1989 8 14 00 20.8 151.9 965 70 5 Image Chart
1989 8 14 06 22.1 152.1 960 75 5 Image Chart
1989 8 14 12 23.6 151.9 960 75 5 Image Chart
1989 8 14 18 25.0 151.5 960 75 5 Image Chart
1989 8 15 00 26.1 150.8 960 75 5 Image Chart
1989 8 15 06 27.4 150.3 960 75 5 Image Chart
1989 8 15 12 28.4 149.7 965 70 5 Image Chart
1989 8 15 18 29.3 149.0 965 70 5 Image Chart
1989 8 16 00 30.5 148.2 970 70 5 Image Chart
1989 8 16 06 31.4 147.2 975 65 5 Image Chart
1989 8 16 12 32.5 146.5 975 65 5 Image Chart
1989 8 16 18 33.4 145.9 975 65 5 Image Chart
1989 8 17 00 34.5 145.5 975 65 5 Image Chart
1989 8 17 06 35.8 145.6 975 65 5 Image Chart
1989 8 17 09 36.6 145.7 980 60 4 Image Chart
1989 8 17 12 37.2 145.7 980 55 4 Image Chart
1989 8 17 18 38.6 146.5 985 50 4 Image Chart
1989 8 18 00 40.3 147.7 985 50 4 Image Chart
1989 8 18 06 41.7 148.6 985 50 4 Image Chart
1989 8 18 12 43.1 149.8 985 50 4 Image Chart
1989 8 18 18 44.3 151.3 990 45 3 Image Chart
1989 8 19 00 45.7 153.3 992 45 3 Image Chart
1989 8 19 06 47.5 154.5 996 0 6 Image Chart
1989 8 19 12 49.0 156.5 996 0 6 Image Chart
1989 8 19 18 51.0 158.5 1000 0 6 Image Chart
1989 8 20 00 52.5 161.0 1000 0 6 Image Chart
1989 8 20 06 54.0 163.0 1000 0 6 Image Chart
1989 8 20 12 56.0 166.0 998 0 6 Image Chart
1989 8 20 18 57.5 167.0 1000 0 6 Image Chart
1989 8 21 00 58.5 170.0 1000 0 6 Image Chart
1989 8 21 06 60.0 174.0 996 0 6 Image Chart
1989 8 21 12 61.5 176.0 996 0 6 Image Chart
Japan Meteorological Agency Best Track Data | Correction Date : 1992-10-21
< Typhoon 198914 1989 Season Typhoon 198916 >

Help